sensor_id;sensor_type;location;lat;lon;timestamp;pressure;altitude;pressure_sealevel;temperature;humidity
63343;BME280;49465;57.664;39.686;2022-12-29T00:01:10;100043.59;;;-1.35;57.32
63343;BME280;49465;57.664;39.686;2022-12-29T00:03:36;100044.97;;;-1.18;56.91
63343;BME280;49465;57.664;39.686;2022-12-29T00:06:02;100041.50;;;-2.11;58.01
63343;BME280;49465;57.664;39.686;2022-12-29T00:08:29;100034.84;;;-2.24;57.91
63343;BME280;49465;57.664;39.686;2022-12-29T00:11:13;100038.34;;;-1.32;57.07
63343;BME280;49465;57.664;39.686;2022-12-29T00:13:39;100039.88;;;-2.16;58.16
63343;BME280;49465;57.664;39.686;2022-12-29T00:16:25;100043.47;;;-1.29;57.05
63343;BME280;49465;57.664;39.686;2022-12-29T00:18:51;100035.63;;;-2.17;58.11
63343;BME280;49465;57.664;39.686;2022-12-29T00:21:19;100041.72;;;-2.25;58.76
63343;BME280;49465;57.664;39.686;2022-12-29T00:24:17;100038.34;;;-2.28;58.74
63343;BME280;49465;57.664;39.686;2022-12-29T00:29:48;100039.25;;;-2.31;58.65
63343;BME280;49465;57.664;39.686;2022-12-29T00:32:34;100039.31;;;-1.37;57.06
63343;BME280;49465;57.664;39.686;2022-12-29T00:37:54;100051.22;;;-2.30;58.79
63343;BME280;49465;57.664;39.686;2022-12-29T00:40:40;100051.28;;;-2.33;58.33
63343;BME280;49465;57.664;39.686;2022-12-29T00:43:27;100039.41;;;-1.41;57.27
63343;BME280;49465;57.664;39.686;2022-12-29T00:46:15;100038.31;;;-2.25;57.94
63343;BME280;49465;57.664;39.686;2022-12-29T00:48:41;100042.81;;;-1.40;56.56
63343;BME280;49465;57.664;39.686;2022-12-29T00:51:25;100033.19;;;-2.25;57.84
63343;BME280;49465;57.664;39.686;2022-12-29T00:53:57;100035.09;;;-1.40;56.85
63343;BME280;49465;57.664;39.686;2022-12-29T00:56:26;100030.63;;;-2.27;57.74
63343;BME280;49465;57.664;39.686;2022-12-29T00:58:55;100038.47;;;-2.38;57.72
63343;BME280;49465;57.664;39.686;2022-12-29T01:01:21;100033.44;;;-2.42;58.45
63343;BME280;49465;57.664;39.686;2022-12-29T01:03:48;100036.16;;;-1.50;56.87
63343;BME280;49465;57.664;39.686;2022-12-29T01:06:15;100036.69;;;-2.31;58.46
63343;BME280;49465;57.664;39.686;2022-12-29T01:08:41;100029.94;;;-2.40;58.26
63343;BME280;49465;57.664;39.686;2022-12-29T01:11:10;100031.84;;;-1.50;57.23
63343;BME280;49465;57.664;39.686;2022-12-29T01:13:37;100038.38;;;-2.31;57.97
63343;BME280;49465;57.664;39.686;2022-12-29T01:16:08;100035.09;;;-2.40;58.57
63343;BME280;49465;57.664;39.686;2022-12-29T01:18:34;100028.44;;;-1.50;56.88
63343;BME280;49465;57.664;39.686;2022-12-29T01:21:03;100035.75;;;-2.27;58.31
63343;BME280;49465;57.664;39.686;2022-12-29T01:23:30;100031.69;;;-2.42;58.42
63343;BME280;49465;57.664;39.686;2022-12-29T01:25:57;100040.47;;;-1.52;57.44
63343;BME280;49465;57.664;39.686;2022-12-29T01:28:24;100032.47;;;-2.35;58.40
63343;BME280;49465;57.664;39.686;2022-12-29T01:30:52;100036.91;;;-2.45;58.71
63343;BME280;49465;57.664;39.686;2022-12-29T01:33:19;100041.34;;;-1.53;56.77
63343;BME280;49465;57.664;39.686;2022-12-29T01:35:45;100032.47;;;-2.35;58.27
63343;BME280;49465;57.664;39.686;2022-12-29T01:38:11;100040.41;;;-1.49;56.61
63343;BME280;49465;57.664;39.686;2022-12-29T01:40:45;100042.47;;;-2.20;57.62
63343;BME280;49465;57.664;39.686;2022-12-29T01:43:13;100030.13;;;-1.49;56.80
63343;BME280;49465;57.664;39.686;2022-12-29T01:45:50;100040.19;;;-1.37;56.57
63343;BME280;49465;57.664;39.686;2022-12-29T01:48:18;100038.34;;;-2.28;58.06
63343;BME280;49465;57.664;39.686;2022-12-29T01:50:52;100045.00;;;-2.16;58.72
63343;BME280;49465;57.664;39.686;2022-12-29T01:53:21;100038.75;;;-1.52;57.06
63343;BME280;49465;57.664;39.686;2022-12-29T01:55:58;100033.34;;;-1.38;56.21
63343;BME280;49465;57.664;39.686;2022-12-29T01:58:33;100043.34;;;-2.19;57.66
63343;BME280;49465;57.664;39.686;2022-12-29T02:01:15;100034.41;;;-1.48;56.56
63343;BME280;49465;57.664;39.686;2022-12-29T02:03:44;100035.06;;;-1.37;56.57
63343;BME280;49465;57.664;39.686;2022-12-29T02:06:17;100040.91;;;-2.27;57.66
63343;BME280;49465;57.664;39.686;2022-12-29T02:08:53;100042.66;;;-2.29;57.71
63343;BME280;49465;57.664;39.686;2022-12-29T02:11:23;100044.84;;;-1.57;56.61
63343;BME280;49465;57.664;39.686;2022-12-29T02:13:50;100043.69;;;-2.42;57.65
63343;BME280;49465;57.664;39.686;2022-12-29T02:19:08;100044.03;;;-1.60;57.04
63343;BME280;49465;57.664;39.686;2022-12-29T02:22:22;100047.25;;;-1.98;57.42
63343;BME280;49465;57.664;39.686;2022-12-29T02:31:06;100049.81;;;-1.96;57.52
63343;BME280;49465;57.664;39.686;2022-12-29T02:33:56;100055.94;;;-1.55;56.51
63343;BME280;49465;57.664;39.686;2022-12-29T02:36:44;100056.19;;;-2.17;57.49
63343;BME280;49465;57.664;39.686;2022-12-29T02:39:33;100049.16;;;-1.60;56.68
63343;BME280;49465;57.664;39.686;2022-12-29T02:42:09;100054.13;;;-1.49;56.07
63343;BME280;49465;57.664;39.686;2022-12-29T02:45:01;100055.06;;;-2.03;57.13
63343;BME280;49465;57.664;39.686;2022-12-29T02:47:37;100060.16;;;-2.57;57.39
63343;BME280;49465;57.664;39.686;2022-12-29T02:53:11;100065.56;;;-1.65;56.45
63343;BME280;49465;57.664;39.686;2022-12-29T02:55:48;100063.94;;;-2.22;57.51
63343;BME280;49465;57.664;39.686;2022-12-29T02:58:18;100065.56;;;-1.67;56.63
63343;BME280;49465;57.664;39.686;2022-12-29T03:12:44;100076.91;;;-2.31;57.48
63343;BME280;49465;57.664;39.686;2022-12-29T03:15:41;100081.09;;;-1.71;56.44
63343;BME280;49465;57.664;39.686;2022-12-29T03:18:56;100082.63;;;-2.14;57.54
63343;BME280;49465;57.664;39.686;2022-12-29T03:24:25;100093.63;;;-2.65;58.01
63343;BME280;49465;57.664;39.686;2022-12-29T03:26:57;100088.44;;;-2.59;57.66
63343;BME280;49465;57.664;39.686;2022-12-29T03:29:25;100087.00;;;-2.78;57.44
63343;BME280;49465;57.664;39.686;2022-12-29T03:31:57;100087.00;;;-2.78;57.69
63343;BME280;49465;57.664;39.686;2022-12-29T03:34:26;100089.06;;;-1.87;55.88
63343;BME280;49465;57.664;39.686;2022-12-29T03:37:02;100085.72;;;-2.49;57.26
63343;BME280;49465;57.664;39.686;2022-12-29T03:39:31;100083.56;;;-2.79;57.02
63343;BME280;49465;57.664;39.686;2022-12-29T03:42:14;100090.81;;;-2.45;58.02
63343;BME280;49465;57.664;39.686;2022-12-29T03:44:44;100083.50;;;-2.74;57.38
63343;BME280;49465;57.664;39.686;2022-12-29T03:47:11;100088.25;;;-1.90;56.13
63343;BME280;49465;57.664;39.686;2022-12-29T03:49:39;100094.84;;;-1.74;56.21
63343;BME280;49465;57.664;39.686;2022-12-29T03:52:08;100100.38;;;-2.54;56.74
63343;BME280;49465;57.664;39.686;2022-12-29T03:54:34;100097.31;;;-2.83;57.01
63343;BME280;49465;57.664;39.686;2022-12-29T03:57:03;100098.59;;;-1.92;56.02
63343;BME280;49465;57.664;39.686;2022-12-29T03:59:29;100097.22;;;-2.76;56.66
63343;BME280;49465;57.664;39.686;2022-12-29T04:01:58;100101.63;;;-2.86;57.36
63343;BME280;49465;57.664;39.686;2022-12-29T04:04:27;100105.97;;;-2.90;57.33
63343;BME280;49465;57.664;39.686;2022-12-29T04:06:53;100105.97;;;-2.93;57.26
63343;BME280;49465;57.664;39.686;2022-12-29T04:09:20;100111.56;;;-2.00;56.26
63343;BME280;49465;57.664;39.686;2022-12-29T04:11:46;100110.13;;;-2.81;56.97
63343;BME280;49465;57.664;39.686;2022-12-29T04:14:15;100109.38;;;-2.91;56.43
63343;BME280;49465;57.664;39.686;2022-12-29T04:16:44;100111.50;;;-1.98;55.77
63343;BME280;49465;57.664;39.686;2022-12-29T04:19:12;100115.31;;;-2.84;56.26
63343;BME280;49465;57.664;39.686;2022-12-29T04:21:38;100112.00;;;-2.94;56.21
63343;BME280;49465;57.664;39.686;2022-12-29T04:24:11;100118.00;;;-2.98;56.64
63343;BME280;49465;57.664;39.686;2022-12-29T04:26:40;100113.78;;;-3.01;56.50
63343;BME280;49465;57.664;39.686;2022-12-29T04:29:07;100114.66;;;-3.02;56.14
63343;BME280;49465;57.664;39.686;2022-12-29T04:31:36;100120.22;;;-2.07;55.67
63343;BME280;49465;57.664;39.686;2022-12-29T04:34:03;100124.78;;;-2.91;56.01
63343;BME280;49465;57.664;39.686;2022-12-29T04:36:29;100124.88;;;-3.00;56.45
63343;BME280;49465;57.664;39.686;2022-12-29T04:39:03;100121.06;;;-2.06;55.38
63343;BME280;49465;57.664;39.686;2022-12-29T04:41:31;100117.97;;;-2.93;55.57
63343;BME280;49465;57.664;39.686;2022-12-29T04:44:00;100125.34;;;-2.05;55.21
63343;BME280;49465;57.664;39.686;2022-12-29T04:46:29;100120.56;;;-2.95;55.34
63343;BME280;49465;57.664;39.686;2022-12-29T04:48:57;100120.25;;;-2.10;54.84
63343;BME280;49465;57.664;39.686;2022-12-29T04:51:29;100126.91;;;-1.96;54.58
63343;BME280;49465;57.664;39.686;2022-12-29T04:53:56;100125.16;;;-1.93;55.10
63343;BME280;49465;57.664;39.686;2022-12-29T04:56:22;100116.28;;;-2.96;54.83
63343;BME280;49465;57.664;39.686;2022-12-29T04:58:49;100119.47;;;-2.13;54.69
63343;BME280;49465;57.664;39.686;2022-12-29T05:01:15;100115.56;;;-3.06;54.39
63343;BME280;49465;57.664;39.686;2022-12-29T05:03:41;100132.38;;;-2.20;54.80
63343;BME280;49465;57.664;39.686;2022-12-29T05:06:08;100135.28;;;-3.11;54.44
63343;BME280;49465;57.664;39.686;2022-12-29T05:08:34;100137.97;;;-3.25;55.18
63343;BME280;49465;57.664;39.686;2022-12-29T05:11:03;100138.06;;;-3.31;54.99
63343;BME280;49465;57.664;39.686;2022-12-29T05:13:34;100139.78;;;-3.33;54.80
63343;BME280;49465;57.664;39.686;2022-12-29T05:16:06;100139.78;;;-3.36;54.28
63343;BME280;49465;57.664;39.686;2022-12-29T05:18:32;100149.81;;;-2.42;54.21
63343;BME280;49465;57.664;39.686;2022-12-29T05:20:58;100139.72;;;-3.28;54.05
63343;BME280;49465;57.664;39.686;2022-12-29T05:23:25;100144.69;;;-2.42;54.14
63343;BME280;49465;57.664;39.686;2022-12-29T05:25:51;100145.75;;;-3.31;53.96
63343;BME280;49465;57.664;39.686;2022-12-29T05:28:20;100152.69;;;-3.44;53.92
63343;BME280;49465;57.664;39.686;2022-12-29T05:30:49;100155.25;;;-3.41;53.83
63343;BME280;49465;57.664;39.686;2022-12-29T05:33:16;100161.13;;;-2.55;53.75
63343;BME280;49465;57.664;39.686;2022-12-29T05:35:45;100160.38;;;-3.42;53.44
63343;BME280;49465;57.664;39.686;2022-12-29T05:38:11;100157.69;;;-2.54;53.91
63343;BME280;49465;57.664;39.686;2022-12-29T05:40:40;100157.81;;;-3.45;53.99
63343;BME280;49465;57.664;39.686;2022-12-29T05:43:07;100163.75;;;-2.58;53.74
63343;BME280;49465;57.664;39.686;2022-12-29T05:45:36;100168.00;;;-3.36;53.53
63343;BME280;49465;57.664;39.686;2022-12-29T05:48:05;100163.75;;;-2.61;53.66
63343;BME280;49465;57.664;39.686;2022-12-29T05:50:32;100162.16;;;-3.52;54.06
63343;BME280;49465;57.664;39.686;2022-12-29T05:52:58;100166.41;;;-2.66;54.04
63343;BME280;49465;57.664;39.686;2022-12-29T05:55:29;100168.19;;;-3.56;54.60
63343;BME280;49465;57.664;39.686;2022-12-29T05:58:19;100173.25;;;-3.51;54.77
63343;BME280;49465;57.664;39.686;2022-12-29T06:00:52;100187.03;;;-2.73;53.78
63343;BME280;49465;57.664;39.686;2022-12-29T06:03:18;100184.47;;;-3.63;54.60
63343;BME280;49465;57.664;39.686;2022-12-29T06:05:47;100193.03;;;-3.64;54.72
63343;BME280;49465;57.664;39.686;2022-12-29T06:08:17;100189.72;;;-2.86;54.25
63343;BME280;49465;57.664;39.686;2022-12-29T06:10:43;100191.25;;;-2.69;53.92
63343;BME280;49465;57.664;39.686;2022-12-29T06:13:09;100185.19;;;-2.64;53.98
63343;BME280;49465;57.664;39.686;2022-12-29T06:15:39;100192.00;;;-2.61;53.51
63343;BME280;49465;57.664;39.686;2022-12-29T06:18:09;100197.22;;;-3.52;54.63
63343;BME280;49465;57.664;39.686;2022-12-29T06:20:35;100191.41;;;-2.83;54.55
63343;BME280;49465;57.664;39.686;2022-12-29T06:23:01;100207.63;;;-3.74;54.22
63343;BME280;49465;57.664;39.686;2022-12-29T06:25:28;100199.16;;;-3.87;55.08
63343;BME280;49465;57.664;39.686;2022-12-29T06:27:56;100203.50;;;-2.94;53.97
63343;BME280;49465;57.664;39.686;2022-12-29T06:30:25;100213.59;;;-3.70;54.94
63343;BME280;49465;57.664;39.686;2022-12-29T06:32:52;100211.19;;;-2.94;54.38
63343;BME280;49465;57.664;39.686;2022-12-29T06:35:18;100210.25;;;-3.82;55.15
63343;BME280;49465;57.664;39.686;2022-12-29T06:37:45;100202.66;;;-3.94;55.71
63343;BME280;49465;57.664;39.686;2022-12-29T06:40:12;100196.75;;;-3.02;54.71
63343;BME280;49465;57.664;39.686;2022-12-29T06:42:38;100209.41;;;-3.87;55.48
63343;BME280;49465;57.664;39.686;2022-12-29T06:45:07;100209.47;;;-3.96;55.47
63343;BME280;49465;57.664;39.686;2022-12-29T06:47:34;100214.72;;;-3.05;54.91
63343;BME280;49465;57.664;39.686;2022-12-29T06:50:04;100211.13;;;-3.87;54.98
63343;BME280;49465;57.664;39.686;2022-12-29T06:52:33;100209.53;;;-3.00;54.38
63343;BME280;49465;57.664;39.686;2022-12-29T06:55:06;100223.84;;;-3.75;54.94
63343;BME280;49465;57.664;39.686;2022-12-29T06:57:32;100222.38;;;-3.00;54.04
63343;BME280;49465;57.664;39.686;2022-12-29T07:00:04;100210.28;;;-2.89;54.51
63343;BME280;49465;57.664;39.686;2022-12-29T07:02:31;100211.09;;;-2.84;54.28
63343;BME280;49465;57.664;39.686;2022-12-29T07:05:02;100212.81;;;-3.82;55.14
63343;BME280;49465;57.664;39.686;2022-12-29T07:07:29;100216.31;;;-3.97;55.98
63343;BME280;49465;57.664;39.686;2022-12-29T07:09:55;100218.16;;;-3.06;54.95
63343;BME280;49465;57.664;39.686;2022-12-29T07:12:24;100217.09;;;-3.88;55.39
63343;BME280;49465;57.664;39.686;2022-12-29T07:14:54;100206.13;;;-3.01;54.81
63343;BME280;49465;57.664;39.686;2022-12-29T07:17:23;100223.84;;;-3.73;55.80
63343;BME280;49465;57.664;39.686;2022-12-29T07:19:50;100212.09;;;-3.00;55.13
63343;BME280;49465;57.664;39.686;2022-12-29T07:22:16;100216.25;;;-3.87;56.22
63343;BME280;49465;57.664;39.686;2022-12-29T07:24:42;100219.75;;;-3.98;56.42
63343;BME280;49465;57.664;39.686;2022-12-29T07:27:09;100222.41;;;-3.05;55.28
63343;BME280;49465;57.664;39.686;2022-12-29T07:29:37;100223.06;;;-3.80;56.38
63343;BME280;49465;57.664;39.686;2022-12-29T07:32:04;100218.97;;;-3.02;55.09
63343;BME280;49465;57.664;39.686;2022-12-29T07:34:31;100217.09;;;-3.84;56.67
63343;BME280;49465;57.664;39.686;2022-12-29T07:37:02;100218.91;;;-2.96;55.05
63343;BME280;49465;57.664;39.686;2022-12-29T07:39:31;100221.34;;;-2.82;54.72
63343;BME280;49465;57.664;39.686;2022-12-29T07:42:02;100226.28;;;-2.67;54.83
63343;BME280;49465;57.664;39.686;2022-12-29T07:44:31;100232.28;;;-3.59;56.28
63343;BME280;49465;57.664;39.686;2022-12-29T07:47:00;100223.84;;;-3.72;56.75
63343;BME280;49465;57.664;39.686;2022-12-29T07:49:27;100232.56;;;-2.92;55.52
63343;BME280;49465;57.664;39.686;2022-12-29T07:51:56;100228.16;;;-2.78;55.07
63343;BME280;49465;57.664;39.686;2022-12-29T07:54:25;100231.44;;;-3.58;56.68
63343;BME280;49465;57.664;39.686;2022-12-29T07:56:55;100231.63;;;-2.85;55.68
63343;BME280;49465;57.664;39.686;2022-12-29T07:59:27;100233.94;;;-3.49;57.31
63343;BME280;49465;57.664;39.686;2022-12-29T08:02:02;100228.19;;;-3.80;56.95
63343;BME280;49465;57.664;39.686;2022-12-29T08:04:29;100228.25;;;-2.90;55.43
63343;BME280;49465;57.664;39.686;2022-12-29T08:06:58;100229.81;;;-3.68;56.96
63343;BME280;49465;57.664;39.686;2022-12-29T08:09:34;100238.22;;;-3.54;57.89
63343;BME280;49465;57.664;39.686;2022-12-29T08:12:03;100232.47;;;-2.85;55.85
63343;BME280;49465;57.664;39.686;2022-12-29T08:14:41;100234.94;;;-2.72;55.44
63343;BME280;49465;57.664;39.686;2022-12-29T08:17:10;100233.03;;;-2.56;55.39
63343;BME280;49465;57.664;39.686;2022-12-29T08:19:37;100239.91;;;-3.48;57.27
63343;BME280;49465;57.664;39.686;2022-12-29T08:22:06;100235.72;;;-3.62;57.15
63343;BME280;49465;57.664;39.686;2022-12-29T08:24:32;100238.38;;;-2.75;55.79
63343;BME280;49465;57.664;39.686;2022-12-29T08:26:58;100247.59;;;-3.51;57.21
63343;BME280;49465;57.664;39.686;2022-12-29T08:29:25;100247.72;;;-2.68;56.40
63343;BME280;49465;57.664;39.686;2022-12-29T08:31:52;100254.41;;;-2.54;55.72
63343;BME280;49465;57.664;39.686;2022-12-29T08:34:21;100250.94;;;-3.42;57.38
63343;BME280;49465;57.664;39.686;2022-12-29T08:36:47;100245.06;;;-2.59;55.70
63343;BME280;49465;57.664;39.686;2022-12-29T08:39:14;100245.81;;;-3.40;57.26
63343;BME280;49465;57.664;39.686;2022-12-29T08:41:40;100253.53;;;-2.53;55.96
63343;BME280;49465;57.664;39.686;2022-12-29T08:44:12;100241.50;;;-3.36;57.42
63343;BME280;49465;57.664;39.686;2022-12-29T08:46:39;100252.69;;;-2.54;56.67
63343;BME280;49465;57.664;39.686;2022-12-29T08:49:05;100245.75;;;-3.32;57.83
63343;BME280;49465;57.664;39.686;2022-12-29T08:51:31;100244.97;;;-3.41;57.66
63343;BME280;49465;57.664;39.686;2022-12-29T08:53:58;100250.09;;;-3.42;58.29
63343;BME280;49465;57.664;39.686;2022-12-29T08:56:28;100247.53;;;-3.42;58.51
63343;BME280;49465;57.664;39.686;2022-12-29T08:58:59;100245.00;;;-2.54;57.05
63343;BME280;49465;57.664;39.686;2022-12-29T09:01:27;100247.41;;;-3.27;57.63
63343;BME280;49465;57.664;39.686;2022-12-29T09:03:57;100244.09;;;-2.50;56.94
63343;BME280;49465;57.664;39.686;2022-12-29T09:06:23;100248.22;;;-3.22;57.47
63343;BME280;49465;57.664;39.686;2022-12-29T09:08:49;100259.41;;;-2.41;56.74
63343;BME280;49465;57.664;39.686;2022-12-29T09:11:21;100248.06;;;-3.05;58.14
63343;BME280;49465;57.664;39.686;2022-12-29T09:13:49;100249.09;;;-3.26;58.32
63343;BME280;49465;57.664;39.686;2022-12-29T09:16:18;100261.06;;;-2.38;56.65
63343;BME280;49465;57.664;39.686;2022-12-29T09:18:45;100255.00;;;-3.14;58.38
63343;BME280;49465;57.664;39.686;2022-12-29T09:21:16;100262.69;;;-2.29;56.23
63343;BME280;49465;57.664;39.686;2022-12-29T09:23:43;100260.06;;;-3.08;57.98
63343;BME280;49465;57.664;39.686;2022-12-29T09:26:12;100272.88;;;-2.23;56.93
63343;BME280;49465;57.664;39.686;2022-12-29T09:28:39;100265.19;;;-3.05;57.87
63343;BME280;49465;57.664;39.686;2022-12-29T09:31:17;100278.88;;;-2.23;56.56
63343;BME280;49465;57.664;39.686;2022-12-29T09:33:43;100276.13;;;-2.09;56.44
63343;BME280;49465;57.664;39.686;2022-12-29T09:36:09;100279.63;;;-2.98;57.66
63343;BME280;49465;57.664;39.686;2022-12-29T09:38:39;100285.72;;;-3.08;58.43
63343;BME280;49465;57.664;39.686;2022-12-29T09:41:26;100280.69;;;-2.32;57.10
63343;BME280;49465;57.664;39.686;2022-12-29T09:46:51;100278.03;;;-2.25;57.25
63343;BME280;49465;57.664;39.686;2022-12-29T09:49:35;100273.53;;;-2.83;59.01
63343;BME280;49465;57.664;39.686;2022-12-29T09:52:14;100277.84;;;-2.08;57.12
63343;BME280;49465;57.664;39.686;2022-12-29T09:57:38;100275.13;;;-1.97;57.10
63343;BME280;49465;57.664;39.686;2022-12-29T10:00:28;100279.88;;;-2.36;57.84
63343;BME280;49465;57.664;39.686;2022-12-29T10:03:10;100278.53;;;-2.69;58.81
63343;BME280;49465;57.664;39.686;2022-12-29T10:05:58;100277.78;;;-2.05;57.54
63343;BME280;49465;57.664;39.686;2022-12-29T10:14:58;100283.25;;;-2.32;58.11
63343;BME280;49465;57.664;39.686;2022-12-29T10:25:40;100272.28;;;-1.79;57.03
63343;BME280;49465;57.664;39.686;2022-12-29T10:28:34;100283.94;;;-2.18;58.59
63343;BME280;49465;57.664;39.686;2022-12-29T10:31:06;100280.94;;;-2.54;59.22
63343;BME280;49465;57.664;39.686;2022-12-29T10:33:42;100282.63;;;-1.82;57.18
63343;BME280;49465;57.664;39.686;2022-12-29T10:36:27;100290.16;;;-2.38;58.65
63343;BME280;49465;57.664;39.686;2022-12-29T10:41:49;100284.91;;;-2.28;58.97
63343;BME280;49465;57.664;39.686;2022-12-29T10:44:22;100293.63;;;-2.42;59.27
63343;BME280;49465;57.664;39.686;2022-12-29T10:47:00;100290.13;;;-1.66;57.18
63343;BME280;49465;57.664;39.686;2022-12-29T10:49:40;100295.09;;;-2.17;58.21
63343;BME280;49465;57.664;39.686;2022-12-29T10:52:14;100300.50;;;-2.45;58.73
63343;BME280;49465;57.664;39.686;2022-12-29T10:57:41;100306.16;;;-2.14;58.68
63343;BME280;49465;57.664;39.686;2022-12-29T11:00:28;100308.06;;;-1.62;57.27
63343;BME280;49465;57.664;39.686;2022-12-29T11:05:33;100302.09;;;-2.33;58.76
63343;BME280;49465;57.664;39.686;2022-12-29T11:08:10;100304.47;;;-2.15;58.86
63343;BME280;49465;57.664;39.686;2022-12-29T11:10:41;100308.09;;;-2.33;59.21
63343;BME280;49465;57.664;39.686;2022-12-29T11:13:27;100318.81;;;-2.00;58.84
63343;BME280;49465;57.664;39.686;2022-12-29T11:15:56;100310.69;;;-2.36;58.74
63343;BME280;49465;57.664;39.686;2022-12-29T11:18:25;100319.16;;;-2.28;58.97
63343;BME280;49465;57.664;39.686;2022-12-29T11:21:06;100326.66;;;-1.44;57.45
63343;BME280;49465;57.664;39.686;2022-12-29T11:23:40;100317.78;;;-1.23;56.52
63343;BME280;49465;57.664;39.686;2022-12-29T11:26:23;100322.84;;;-1.18;56.40
63343;BME280;49465;57.664;39.686;2022-12-29T11:31:54;100326.38;;;-1.26;57.00
63343;BME280;49465;57.664;39.686;2022-12-29T11:34:34;100322.13;;;-1.90;58.58
63343;BME280;49465;57.664;39.686;2022-12-29T11:37:08;100330.88;;;-2.04;58.71
63343;BME280;49465;57.664;39.686;2022-12-29T11:39:58;100329.28;;;-2.14;58.94
63343;BME280;49465;57.664;39.686;2022-12-29T11:42:40;100323.84;;;-1.89;58.84
63343;BME280;49465;57.664;39.686;2022-12-29T11:45:23;100328.16;;;-1.29;57.38
63343;BME280;49465;57.664;39.686;2022-12-29T11:48:19;100328.59;;;-1.58;58.53
63343;BME280;49465;57.664;39.686;2022-12-29T11:50:53;100327.50;;;-2.06;58.76
63343;BME280;49465;57.664;39.686;2022-12-29T11:53:33;100329.97;;;-2.00;59.13
63343;BME280;49465;57.664;39.686;2022-12-29T11:56:51;100337.78;;;-2.07;59.22
63343;BME280;49465;57.664;39.686;2022-12-29T11:59:10;100334.47;;;-2.20;58.85
63343;BME280;49465;57.664;39.686;2022-12-29T12:01:45;100344.38;;;-1.26;57.53
63343;BME280;49465;57.664;39.686;2022-12-29T12:04:19;100347.00;;;-1.91;58.95
63343;BME280;49465;57.664;39.686;2022-12-29T12:12:35;100355.38;;;-1.14;57.28
63343;BME280;49465;57.664;39.686;2022-12-29T12:15:19;100349.47;;;-1.83;58.89
63343;BME280;49465;57.664;39.686;2022-12-29T12:18:07;100353.63;;;-1.73;59.30
63343;BME280;49465;57.664;39.686;2022-12-29T12:21:13;100356.19;;;-1.73;58.90
63343;BME280;49465;57.664;39.686;2022-12-29T12:26:37;100364.84;;;-1.18;57.84
63343;BME280;49465;57.664;39.686;2022-12-29T12:29:13;100364.88;;;-1.80;58.42
63343;BME280;49465;57.664;39.686;2022-12-29T12:32:01;100369.06;;;-1.12;57.38
63343;BME280;49465;57.664;39.686;2022-12-29T12:34:43;100369.09;;;-1.76;58.19
63343;BME280;49465;57.664;39.686;2022-12-29T12:37:32;100369.75;;;-1.62;58.94
63343;BME280;49465;57.664;39.686;2022-12-29T12:42:58;100373.38;;;-1.14;57.37
63343;BME280;49465;57.664;39.686;2022-12-29T12:45:55;100375.72;;;-0.97;56.68
63343;BME280;49465;57.664;39.686;2022-12-29T13:13:30;100377.63;;;-1.72;58.27
63343;BME280;49465;57.664;39.686;2022-12-29T13:22:02;100386.72;;;-1.47;57.89
63343;BME280;49465;57.664;39.686;2022-12-29T13:24:47;100394.69;;;-1.03;57.08
63343;BME280;49465;57.664;39.686;2022-12-29T13:27:47;100395.38;;;-0.93;56.24
63343;BME280;49465;57.664;39.686;2022-12-29T13:30:19;100392.31;;;-1.84;58.11
63343;BME280;49465;57.664;39.686;2022-12-29T13:33:04;100401.59;;;-1.08;57.33
63343;BME280;49465;57.664;39.686;2022-12-29T13:36:13;100402.94;;;-1.42;57.84
63343;BME280;49465;57.664;39.686;2022-12-29T13:38:51;100406.75;;;-1.08;56.65
63343;BME280;49465;57.664;39.686;2022-12-29T13:41:27;100413.78;;;-1.88;58.00
63343;BME280;49465;57.664;39.686;2022-12-29T13:44:02;100411.97;;;-1.11;56.75
63343;BME280;49465;57.664;39.686;2022-12-29T13:46:37;100417.81;;;-1.02;56.75
63343;BME280;49465;57.664;39.686;2022-12-29T13:51:58;100423.03;;;-1.73;58.47
63343;BME280;49465;57.664;39.686;2022-12-29T13:59:57;100429.19;;;-1.18;57.33
63343;BME280;49465;57.664;39.686;2022-12-29T14:07:48;100423.34;;;-1.99;58.08
63343;BME280;49465;57.664;39.686;2022-12-29T14:10:38;100422.94;;;-1.67;58.30
63343;BME280;49465;57.664;39.686;2022-12-29T14:13:14;100422.63;;;-2.13;58.48
63343;BME280;49465;57.664;39.686;2022-12-29T14:15:54;100423.19;;;-1.88;58.86
63343;BME280;49465;57.664;39.686;2022-12-29T14:18:41;100425.06;;;-2.01;59.04
63343;BME280;49465;57.664;39.686;2022-12-29T14:23:44;100431.25;;;-2.19;58.50
63343;BME280;49465;57.664;39.686;2022-12-29T14:31:55;100424.97;;;-1.92;58.25
63343;BME280;49465;57.664;39.686;2022-12-29T14:34:28;100429.22;;;-1.20;56.99
63343;BME280;49465;57.664;39.686;2022-12-29T14:36:59;100425.00;;;-1.93;58.19
63343;BME280;49465;57.664;39.686;2022-12-29T14:42:16;100427.44;;;-1.83;58.68
63343;BME280;49465;57.664;39.686;2022-12-29T14:44:52;100431.09;;;-2.04;58.76
63343;BME280;49465;57.664;39.686;2022-12-29T14:47:37;100434.31;;;-1.85;59.27
63343;BME280;49465;57.664;39.686;2022-12-29T14:53:06;100426.31;;;-1.58;58.45
63343;BME280;49465;57.664;39.686;2022-12-29T14:55:59;100429.25;;;-1.21;57.18
63343;BME280;49465;57.664;39.686;2022-12-29T14:58:28;100430.28;;;-2.07;58.28
63343;BME280;49465;57.664;39.686;2022-12-29T15:00:57;100427.84;;;-2.21;58.38
63343;BME280;49465;57.664;39.686;2022-12-29T15:03:38;100433.53;;;-1.93;59.32
63343;BME280;49465;57.664;39.686;2022-12-29T15:06:13;100427.81;;;-2.20;59.57
63343;BME280;49465;57.664;39.686;2022-12-29T15:09:02;100430.03;;;-1.84;59.02
63343;BME280;49465;57.664;39.686;2022-12-29T15:16:58;100431.13;;;-1.34;57.27
63343;BME280;49465;57.664;39.686;2022-12-29T15:19:27;100441.53;;;-2.19;58.68
63343;BME280;49465;57.664;39.686;2022-12-29T15:21:57;100442.44;;;-2.28;59.00
63343;BME280;49465;57.664;39.686;2022-12-29T15:24:26;100447.50;;;-2.20;59.32
63343;BME280;49465;57.664;39.686;2022-12-29T15:26:55;100449.38;;;-2.33;59.60
63343;BME280;49465;57.664;39.686;2022-12-29T15:29:40;100442.97;;;-1.92;59.06